sensor_id;sensor_type;location;lat;lon;timestamp;P1;durP1;ratioP1;P2;durP2;ratioP2
781;SDS011;374;52.568;13.402;2022-08-18T00:00:35;14.97;;;13.73;;
781;SDS011;374;52.568;13.402;2022-08-18T00:03:04;14.87;;;13.67;;
781;SDS011;374;52.568;13.402;2022-08-18T00:05:31;14.87;;;13.57;;
781;SDS011;374;52.568;13.402;2022-08-18T00:07:57;14.30;;;13.10;;
781;SDS011;374;52.568;13.402;2022-08-18T00:10:24;14.53;;;13.30;;
781;SDS011;374;52.568;13.402;2022-08-18T00:12:50;14.60;;;13.30;;
781;SDS011;374;52.568;13.402;2022-08-18T00:15:16;14.60;;;13.40;;
781;SDS011;374;52.568;13.402;2022-08-18T00:17:42;14.90;;;13.60;;
781;SDS011;374;52.568;13.402;2022-08-18T00:20:10;15.43;;;14.20;;
781;SDS011;374;52.568;13.402;2022-08-18T00:22:38;15.33;;;14.13;;
781;SDS011;374;52.568;13.402;2022-08-18T00:25:04;15.80;;;14.50;;
781;SDS011;374;52.568;13.402;2022-08-18T00:27:31;15.10;;;13.87;;
781;SDS011;374;52.568;13.402;2022-08-18T00:30:00;16.80;;;15.20;;
781;SDS011;374;52.568;13.402;2022-08-18T00:32:29;15.53;;;14.23;;
781;SDS011;374;52.568;13.402;2022-08-18T00:37:33;14.70;;;13.40;;
781;SDS011;374;52.568;13.402;2022-08-18T00:40:00;15.80;;;14.40;;
781;SDS011;374;52.568;13.402;2022-08-18T00:42:27;16.30;;;15.10;;
781;SDS011;374;52.568;13.402;2022-08-18T00:44:54;15.30;;;13.97;;
781;SDS011;374;52.568;13.402;2022-08-18T00:47:20;15.90;;;14.20;;
781;SDS011;374;52.568;13.402;2022-08-18T00:49:46;15.53;;;14.30;;
781;SDS011;374;52.568;13.402;2022-08-18T00:52:16;17.50;;;15.80;;
781;SDS011;374;52.568;13.402;2022-08-18T00:54:43;15.70;;;14.40;;
781;SDS011;374;52.568;13.402;2022-08-18T00:57:11;15.30;;;14.00;;
781;SDS011;374;52.568;13.402;2022-08-18T00:59:49;20.83;;;14.40;;
781;SDS011;374;52.568;13.402;2022-08-18T01:02:27;15.67;;;14.40;;
781;SDS011;374;52.568;13.402;2022-08-18T01:04:59;14.87;;;13.50;;
781;SDS011;374;52.568;13.402;2022-08-18T01:07:35;15.43;;;14.03;;
781;SDS011;374;52.568;13.402;2022-08-18T01:10:06;16.00;;;14.67;;
781;SDS011;374;52.568;13.402;2022-08-18T01:12:32;15.50;;;14.20;;
781;SDS011;374;52.568;13.402;2022-08-18T01:14:57;16.70;;;15.10;;
781;SDS011;374;52.568;13.402;2022-08-18T01:17:24;14.23;;;13.13;;
781;SDS011;374;52.568;13.402;2022-08-18T01:20:10;16.00;;;13.60;;
781;SDS011;374;52.568;13.402;2022-08-18T01:25:28;14.80;;;13.60;;
781;SDS011;374;52.568;13.402;2022-08-18T01:28:14;14.63;;;13.33;;
781;SDS011;374;52.568;13.402;2022-08-18T01:30:47;15.23;;;13.93;;
781;SDS011;374;52.568;13.402;2022-08-18T01:33:15;14.80;;;13.50;;
781;SDS011;374;52.568;13.402;2022-08-18T01:35:42;15.60;;;14.20;;
781;SDS011;374;52.568;13.402;2022-08-18T01:38:13;17.40;;;15.17;;
781;SDS011;374;52.568;13.402;2022-08-18T01:40:43;14.23;;;13.00;;
781;SDS011;374;52.568;13.402;2022-08-18T01:43:10;15.60;;;14.30;;
781;SDS011;374;52.568;13.402;2022-08-18T01:45:36;15.17;;;13.77;;
781;SDS011;374;52.568;13.402;2022-08-18T01:48:02;14.97;;;13.67;;
781;SDS011;374;52.568;13.402;2022-08-18T01:50:28;15.80;;;14.23;;
781;SDS011;374;52.568;13.402;2022-08-18T01:52:55;15.23;;;13.80;;
781;SDS011;374;52.568;13.402;2022-08-18T01:55:21;14.80;;;13.50;;
781;SDS011;374;52.568;13.402;2022-08-18T01:57:46;14.83;;;13.60;;
781;SDS011;374;52.568;13.402;2022-08-18T02:00:12;14.73;;;13.27;;
781;SDS011;374;52.568;13.402;2022-08-18T02:02:40;14.80;;;13.30;;
781;SDS011;374;52.568;13.402;2022-08-18T02:05:11;15.67;;;14.37;;
781;SDS011;374;52.568;13.402;2022-08-18T02:07:40;15.77;;;14.43;;
781;SDS011;374;52.568;13.402;2022-08-18T02:10:06;15.63;;;14.33;;
781;SDS011;374;52.568;13.402;2022-08-18T02:12:34;15.10;;;13.70;;
781;SDS011;374;52.568;13.402;2022-08-18T02:15:00;16.23;;;14.80;;
781;SDS011;374;52.568;13.402;2022-08-18T02:17:26;17.13;;;15.17;;
781;SDS011;374;52.568;13.402;2022-08-18T02:19:51;15.83;;;13.83;;
781;SDS011;374;52.568;13.402;2022-08-18T02:22:18;15.83;;;14.43;;
781;SDS011;374;52.568;13.402;2022-08-18T02:24:45;15.07;;;13.77;;
781;SDS011;374;52.568;13.402;2022-08-18T02:27:11;16.13;;;14.73;;
781;SDS011;374;52.568;13.402;2022-08-18T02:29:38;15.80;;;14.37;;
781;SDS011;374;52.568;13.402;2022-08-18T02:32:05;16.10;;;14.50;;
781;SDS011;374;52.568;13.402;2022-08-18T02:34:31;15.10;;;13.70;;
781;SDS011;374;52.568;13.402;2022-08-18T02:37:00;16.90;;;15.30;;
781;SDS011;374;52.568;13.402;2022-08-18T02:39:26;15.20;;;13.90;;
781;SDS011;374;52.568;13.402;2022-08-18T02:41:52;15.20;;;13.90;;
781;SDS011;374;52.568;13.402;2022-08-18T02:44:18;15.47;;;14.17;;
781;SDS011;374;52.568;13.402;2022-08-18T02:46:43;17.67;;;15.50;;
781;SDS011;374;52.568;13.402;2022-08-18T02:49:09;16.83;;;15.30;;
781;SDS011;374;52.568;13.402;2022-08-18T02:51:36;15.70;;;14.40;;
781;SDS011;374;52.568;13.402;2022-08-18T02:54:02;16.13;;;14.47;;
781;SDS011;374;52.568;13.402;2022-08-18T02:56:28;16.90;;;15.30;;
781;SDS011;374;52.568;13.402;2022-08-18T02:58:56;15.67;;;14.07;;
781;SDS011;374;52.568;13.402;2022-08-18T03:01:29;17.37;;;15.60;;
781;SDS011;374;52.568;13.402;2022-08-18T03:03:57;16.20;;;14.53;;
781;SDS011;374;52.568;13.402;2022-08-18T03:06:23;17.47;;;15.97;;
781;SDS011;374;52.568;13.402;2022-08-18T03:08:49;19.17;;;17.10;;
781;SDS011;374;52.568;13.402;2022-08-18T03:11:16;16.47;;;15.03;;
781;SDS011;374;52.568;13.402;2022-08-18T03:13:44;16.00;;;14.40;;
781;SDS011;374;52.568;13.402;2022-08-18T03:16:10;17.13;;;15.60;;
781;SDS011;374;52.568;13.402;2022-08-18T03:18:36;16.90;;;15.30;;
781;SDS011;374;52.568;13.402;2022-08-18T03:21:09;15.40;;;14.20;;
781;SDS011;374;52.568;13.402;2022-08-18T03:23:37;16.30;;;15.00;;
781;SDS011;374;52.568;13.402;2022-08-18T03:26:04;17.17;;;15.30;;
781;SDS011;374;52.568;13.402;2022-08-18T03:28:31;16.53;;;15.13;;
781;SDS011;374;52.568;13.402;2022-08-18T03:30:58;15.57;;;14.07;;
781;SDS011;374;52.568;13.402;2022-08-18T03:33:24;15.60;;;14.27;;
781;SDS011;374;52.568;13.402;2022-08-18T03:35:49;17.20;;;15.50;;
781;SDS011;374;52.568;13.402;2022-08-18T03:38:14;15.93;;;14.53;;
781;SDS011;374;52.568;13.402;2022-08-18T03:40:40;16.43;;;15.13;;
781;SDS011;374;52.568;13.402;2022-08-18T03:43:07;16.20;;;14.80;;
781;SDS011;374;52.568;13.402;2022-08-18T03:45:33;17.00;;;15.30;;
781;SDS011;374;52.568;13.402;2022-08-18T03:47:59;16.63;;;15.03;;
781;SDS011;374;52.568;13.402;2022-08-18T03:50:26;16.37;;;14.87;;
781;SDS011;374;52.568;13.402;2022-08-18T03:52:53;16.47;;;15.00;;
781;SDS011;374;52.568;13.402;2022-08-18T03:55:19;17.03;;;15.60;;
781;SDS011;374;52.568;13.402;2022-08-18T03:57:45;17.47;;;15.63;;
781;SDS011;374;52.568;13.402;2022-08-18T04:00:11;17.20;;;15.90;;
781;SDS011;374;52.568;13.402;2022-08-18T04:02:37;16.50;;;15.00;;
781;SDS011;374;52.568;13.402;2022-08-18T04:05:04;16.53;;;14.97;;
781;SDS011;374;52.568;13.402;2022-08-18T04:07:30;17.10;;;15.60;;
781;SDS011;374;52.568;13.402;2022-08-18T04:09:55;17.20;;;15.70;;
781;SDS011;374;52.568;13.402;2022-08-18T04:12:21;16.70;;;15.20;;
781;SDS011;374;52.568;13.402;2022-08-18T04:14:48;16.83;;;15.43;;
781;SDS011;374;52.568;13.402;2022-08-18T04:17:14;16.17;;;14.77;;
781;SDS011;374;52.568;13.402;2022-08-18T04:19:40;16.43;;;15.03;;
781;SDS011;374;52.568;13.402;2022-08-18T04:22:06;16.10;;;14.70;;
781;SDS011;374;52.568;13.402;2022-08-18T04:24:32;16.47;;;15.07;;
781;SDS011;374;52.568;13.402;2022-08-18T04:26:59;17.37;;;15.43;;
781;SDS011;374;52.568;13.402;2022-08-18T04:29:26;16.30;;;14.80;;
781;SDS011;374;52.568;13.402;2022-08-18T04:31:52;17.37;;;15.83;;
781;SDS011;374;52.568;13.402;2022-08-18T04:34:19;16.87;;;14.70;;
781;SDS011;374;52.568;13.402;2022-08-18T04:36:46;16.03;;;14.17;;
781;SDS011;374;52.568;13.402;2022-08-18T04:39:12;18.40;;;16.47;;
781;SDS011;374;52.568;13.402;2022-08-18T04:41:39;17.80;;;16.03;;
781;SDS011;374;52.568;13.402;2022-08-18T04:44:07;17.77;;;16.00;;
781;SDS011;374;52.568;13.402;2022-08-18T04:46:35;18.80;;;16.37;;
781;SDS011;374;52.568;13.402;2022-08-18T04:49:08;16.30;;;15.00;;
781;SDS011;374;52.568;13.402;2022-08-18T04:51:34;18.27;;;16.67;;
781;SDS011;374;52.568;13.402;2022-08-18T04:54:00;17.63;;;16.07;;
781;SDS011;374;52.568;13.402;2022-08-18T04:56:27;16.63;;;15.17;;
781;SDS011;374;52.568;13.402;2022-08-18T04:58:58;17.20;;;15.63;;
781;SDS011;374;52.568;13.402;2022-08-18T05:01:27;18.13;;;16.53;;
781;SDS011;374;52.568;13.402;2022-08-18T05:03:54;17.23;;;15.73;;
781;SDS011;374;52.568;13.402;2022-08-18T05:06:22;15.80;;;14.30;;
781;SDS011;374;52.568;13.402;2022-08-18T05:08:53;16.90;;;15.50;;
781;SDS011;374;52.568;13.402;2022-08-18T05:11:20;16.70;;;15.00;;
781;SDS011;374;52.568;13.402;2022-08-18T05:13:47;17.03;;;15.73;;
781;SDS011;374;52.568;13.402;2022-08-18T05:16:13;18.10;;;16.30;;
781;SDS011;374;52.568;13.402;2022-08-18T05:18:39;18.63;;;16.63;;
781;SDS011;374;52.568;13.402;2022-08-18T05:21:08;18.00;;;16.17;;
781;SDS011;374;52.568;13.402;2022-08-18T05:23:41;17.90;;;16.23;;
781;SDS011;374;52.568;13.402;2022-08-18T05:26:07;16.77;;;15.37;;
781;SDS011;374;52.568;13.402;2022-08-18T05:28:34;17.80;;;16.20;;
781;SDS011;374;52.568;13.402;2022-08-18T05:31:18;17.20;;;15.87;;
781;SDS011;374;52.568;13.402;2022-08-18T05:33:46;18.37;;;16.67;;
781;SDS011;374;52.568;13.402;2022-08-18T05:36:19;18.30;;;16.57;;
781;SDS011;374;52.568;13.402;2022-08-18T05:38:56;17.97;;;16.17;;
781;SDS011;374;52.568;13.402;2022-08-18T05:41:41;16.40;;;15.00;;
781;SDS011;374;52.568;13.402;2022-08-18T05:44:14;19.57;;;17.70;;
781;SDS011;374;52.568;13.402;2022-08-18T05:46:49;18.57;;;16.90;;
781;SDS011;374;52.568;13.402;2022-08-18T05:49:17;19.93;;;17.93;;
781;SDS011;374;52.568;13.402;2022-08-18T05:51:45;20.80;;;19.00;;
781;SDS011;374;52.568;13.402;2022-08-18T05:54:13;18.97;;;17.17;;
781;SDS011;374;52.568;13.402;2022-08-18T05:57:09;20.10;;;17.97;;
781;SDS011;374;52.568;13.402;2022-08-18T05:59:40;19.40;;;17.50;;
781;SDS011;374;52.568;13.402;2022-08-18T06:05:07;20.37;;;18.57;;
781;SDS011;374;52.568;13.402;2022-08-18T06:10:02;19.80;;;17.80;;
781;SDS011;374;52.568;13.402;2022-08-18T06:12:31;20.27;;;18.47;;
781;SDS011;374;52.568;13.402;2022-08-18T06:15:02;20.90;;;18.83;;
781;SDS011;374;52.568;13.402;2022-08-18T06:17:50;20.87;;;18.97;;
781;SDS011;374;52.568;13.402;2022-08-18T06:23:13;20.67;;;18.47;;
781;SDS011;374;52.568;13.402;2022-08-18T06:26:19;19.27;;;17.20;;
781;SDS011;374;52.568;13.402;2022-08-18T06:29:04;21.03;;;18.90;;
781;SDS011;374;52.568;13.402;2022-08-18T06:34:37;19.40;;;17.00;;
781;SDS011;374;52.568;13.402;2022-08-18T06:40:33;18.83;;;17.23;;
781;SDS011;374;52.568;13.402;2022-08-18T06:43:02;18.77;;;17.20;;
781;SDS011;374;52.568;13.402;2022-08-18T06:45:32;20.60;;;18.63;;
781;SDS011;374;52.568;13.402;2022-08-18T06:51:08;18.93;;;17.10;;
781;SDS011;374;52.568;13.402;2022-08-18T06:56:26;18.33;;;16.73;;
781;SDS011;374;52.568;13.402;2022-08-18T06:58:52;18.93;;;17.33;;
781;SDS011;374;52.568;13.402;2022-08-18T07:01:19;18.63;;;16.83;;
781;SDS011;374;52.568;13.402;2022-08-18T07:03:49;20.70;;;18.50;;
781;SDS011;374;52.568;13.402;2022-08-18T07:08:46;17.67;;;16.13;;
781;SDS011;374;52.568;13.402;2022-08-18T07:11:27;20.10;;;18.20;;
781;SDS011;374;52.568;13.402;2022-08-18T07:14:19;19.90;;;18.20;;
781;SDS011;374;52.568;13.402;2022-08-18T07:16:46;20.23;;;18.23;;
781;SDS011;374;52.568;13.402;2022-08-18T07:19:13;19.20;;;17.10;;
781;SDS011;374;52.568;13.402;2022-08-18T07:21:59;20.80;;;17.40;;
781;SDS011;374;52.568;13.402;2022-08-18T07:24:41;20.30;;;16.97;;
781;SDS011;374;52.568;13.402;2022-08-18T07:27:13;19.70;;;17.90;;
781;SDS011;374;52.568;13.402;2022-08-18T07:29:58;22.03;;;17.20;;
781;SDS011;374;52.568;13.402;2022-08-18T07:32:35;19.43;;;17.73;;
781;SDS011;374;52.568;13.402;2022-08-18T07:35:08;19.37;;;17.40;;
781;SDS011;374;52.568;13.402;2022-08-18T07:37:42;20.13;;;17.90;;
781;SDS011;374;52.568;13.402;2022-08-18T07:42:49;19.67;;;17.70;;
781;SDS011;374;52.568;13.402;2022-08-18T07:45:28;19.47;;;17.77;;
781;SDS011;374;52.568;13.402;2022-08-18T07:48:09;19.93;;;18.00;;
781;SDS011;374;52.568;13.402;2022-08-18T07:51:08;18.13;;;16.53;;
781;SDS011;374;52.568;13.402;2022-08-18T07:54:04;19.77;;;17.97;;
781;SDS011;374;52.568;13.402;2022-08-18T07:56:44;24.00;;;18.70;;
781;SDS011;374;52.568;13.402;2022-08-18T07:59:21;20.13;;;18.27;;
781;SDS011;374;52.568;13.402;2022-08-18T08:02:08;18.37;;;16.63;;
781;SDS011;374;52.568;13.402;2022-08-18T08:05:03;19.10;;;17.40;;
781;SDS011;374;52.568;13.402;2022-08-18T08:07:34;20.03;;;18.17;;
781;SDS011;374;52.568;13.402;2022-08-18T08:15:47;18.73;;;16.93;;
781;SDS011;374;52.568;13.402;2022-08-18T08:18:33;18.03;;;16.23;;
781;SDS011;374;52.568;13.402;2022-08-18T08:21:09;20.03;;;18.10;;
781;SDS011;374;52.568;13.402;2022-08-18T08:24:09;18.13;;;16.47;;
781;SDS011;374;52.568;13.402;2022-08-18T08:26:47;19.77;;;17.77;;
781;SDS011;374;52.568;13.402;2022-08-18T08:32:22;20.00;;;18.00;;
781;SDS011;374;52.568;13.402;2022-08-18T08:35:05;18.60;;;16.80;;
781;SDS011;374;52.568;13.402;2022-08-18T08:37:38;18.53;;;16.90;;
781;SDS011;374;52.568;13.402;2022-08-18T08:40:26;19.87;;;18.07;;
781;SDS011;374;52.568;13.402;2022-08-18T08:43:09;19.20;;;17.27;;
781;SDS011;374;52.568;13.402;2022-08-18T08:45:41;20.07;;;18.00;;
781;SDS011;374;52.568;13.402;2022-08-18T08:48:23;18.80;;;17.10;;
781;SDS011;374;52.568;13.402;2022-08-18T08:51:00;19.70;;;17.70;;
781;SDS011;374;52.568;13.402;2022-08-18T08:53:46;19.10;;;17.50;;
781;SDS011;374;52.568;13.402;2022-08-18T08:56:16;20.97;;;18.93;;
781;SDS011;374;52.568;13.402;2022-08-18T09:01:38;19.77;;;17.87;;
781;SDS011;374;52.568;13.402;2022-08-18T09:12:40;21.10;;;19.00;;
781;SDS011;374;52.568;13.402;2022-08-18T09:20:47;20.53;;;18.50;;
781;SDS011;374;52.568;13.402;2022-08-18T09:23:43;19.20;;;17.60;;
781;SDS011;374;52.568;13.402;2022-08-18T09:28:54;18.57;;;16.73;;
781;SDS011;374;52.568;13.402;2022-08-18T09:31:29;17.63;;;16.23;;
781;SDS011;374;52.568;13.402;2022-08-18T09:39:43;20.27;;;18.37;;
781;SDS011;374;52.568;13.402;2022-08-18T09:42:50;19.07;;;17.13;;
781;SDS011;374;52.568;13.402;2022-08-18T09:47:59;18.37;;;16.67;;
781;SDS011;374;52.568;13.402;2022-08-18T09:50:55;20.70;;;18.63;;
781;SDS011;374;52.568;13.402;2022-08-18T09:57:17;19.37;;;17.73;;
781;SDS011;374;52.568;13.402;2022-08-18T10:24:29;14.20;;;13.20;;
781;SDS011;374;52.568;13.402;2022-08-18T10:26:59;14.37;;;13.10;;
781;SDS011;374;52.568;13.402;2022-08-18T10:37:19;15.03;;;13.67;;
781;SDS011;374;52.568;13.402;2022-08-18T10:39:52;16.07;;;14.47;;
781;SDS011;374;52.568;13.402;2022-08-18T10:42:44;16.30;;;14.90;;
781;SDS011;374;52.568;13.402;2022-08-18T10:45:22;16.67;;;15.27;;
781;SDS011;374;52.568;13.402;2022-08-18T10:50:26;15.00;;;13.50;;
781;SDS011;374;52.568;13.402;2022-08-18T10:53:01;15.53;;;14.03;;
781;SDS011;374;52.568;13.402;2022-08-18T10:55:47;16.43;;;15.10;;
781;SDS011;374;52.568;13.402;2022-08-18T10:58:35;16.77;;;15.47;;
781;SDS011;374;52.568;13.402;2022-08-18T11:01:07;17.00;;;15.30;;
781;SDS011;374;52.568;13.402;2022-08-18T11:06:16;15.20;;;14.17;;
781;SDS011;374;52.568;13.402;2022-08-18T11:08:49;16.37;;;15.10;;
781;SDS011;374;52.568;13.402;2022-08-18T11:19:52;15.40;;;14.20;;
781;SDS011;374;52.568;13.402;2022-08-18T11:22:26;14.43;;;12.97;;
781;SDS011;374;52.568;13.402;2022-08-18T11:24:53;14.73;;;13.43;;
781;SDS011;374;52.568;13.402;2022-08-18T11:27:23;13.70;;;12.27;;
781;SDS011;374;52.568;13.402;2022-08-18T11:29:52;14.80;;;13.60;;
781;SDS011;374;52.568;13.402;2022-08-18T11:32:23;14.00;;;13.00;;
781;SDS011;374;52.568;13.402;2022-08-18T11:35:02;14.03;;;12.93;;
781;SDS011;374;52.568;13.402;2022-08-18T11:37:35;14.30;;;13.20;;
781;SDS011;374;52.568;13.402;2022-08-18T11:40:10;14.50;;;13.40;;
781;SDS011;374;52.568;13.402;2022-08-18T11:42:53;13.93;;;12.70;;
781;SDS011;374;52.568;13.402;2022-08-18T11:45:23;14.73;;;13.27;;
781;SDS011;374;52.568;13.402;2022-08-18T11:56:24;15.27;;;14.17;;
781;SDS011;374;52.568;13.402;2022-08-18T11:58:54;13.57;;;12.57;;
781;SDS011;374;52.568;13.402;2022-08-18T12:01:47;13.20;;;11.90;;
781;SDS011;374;52.568;13.402;2022-08-18T12:06:53;14.90;;;13.70;;
781;SDS011;374;52.568;13.402;2022-08-18T12:09:21;13.27;;;12.13;;
781;SDS011;374;52.568;13.402;2022-08-18T12:14:57;13.30;;;12.30;;
781;SDS011;374;52.568;13.402;2022-08-18T12:17:25;12.13;;;11.20;;
781;SDS011;374;52.568;13.402;2022-08-18T12:19:52;12.33;;;11.20;;
781;SDS011;374;52.568;13.402;2022-08-18T12:22:20;12.57;;;11.57;;
781;SDS011;374;52.568;13.402;2022-08-18T12:24:47;13.17;;;12.07;;
781;SDS011;374;52.568;13.402;2022-08-18T12:27:14;14.87;;;13.50;;
781;SDS011;374;52.568;13.402;2022-08-18T12:29:41;12.70;;;11.70;;
781;SDS011;374;52.568;13.402;2022-08-18T12:32:07;11.93;;;10.93;;
781;SDS011;374;52.568;13.402;2022-08-18T12:34:33;11.70;;;10.70;;
781;SDS011;374;52.568;13.402;2022-08-18T12:37:01;14.40;;;13.00;;
781;SDS011;374;52.568;13.402;2022-08-18T12:39:30;14.87;;;13.50;;
781;SDS011;374;52.568;13.402;2022-08-18T12:41:56;14.63;;;13.43;;
781;SDS011;374;52.568;13.402;2022-08-18T12:47:31;14.40;;;13.10;;
781;SDS011;374;52.568;13.402;2022-08-18T12:49:56;13.47;;;12.30;;
781;SDS011;374;52.568;13.402;2022-08-18T12:52:22;13.07;;;11.93;;
781;SDS011;374;52.568;13.402;2022-08-18T12:54:47;13.17;;;12.07;;
781;SDS011;374;52.568;13.402;2022-08-18T12:57:17;14.20;;;13.10;;
781;SDS011;374;52.568;13.402;2022-08-18T12:59:48;13.47;;;12.47;;
781;SDS011;374;52.568;13.402;2022-08-18T13:02:14;13.77;;;12.77;;
781;SDS011;374;52.568;13.402;2022-08-18T13:04:39;13.60;;;12.53;;
781;SDS011;374;52.568;13.402;2022-08-18T13:07:05;14.90;;;13.70;;
781;SDS011;374;52.568;13.402;2022-08-18T13:09:32;16.60;;;15.10;;
781;SDS011;374;52.568;13.402;2022-08-18T13:12:00;15.27;;;14.17;;
781;SDS011;374;52.568;13.402;2022-08-18T13:14:26;15.33;;;13.93;;
781;SDS011;374;52.568;13.402;2022-08-18T13:16:53;14.50;;;13.30;;
781;SDS011;374;52.568;13.402;2022-08-18T13:19:19;17.17;;;15.67;;
781;SDS011;374;52.568;13.402;2022-08-18T13:21:44;16.20;;;14.80;;
781;SDS011;374;52.568;13.402;2022-08-18T13:24:10;15.17;;;13.90;;
781;SDS011;374;52.568;13.402;2022-08-18T13:26:37;13.63;;;12.63;;
781;SDS011;374;52.568;13.402;2022-08-18T13:29:06;14.80;;;13.40;;
781;SDS011;374;52.568;13.402;2022-08-18T13:31:32;14.10;;;12.97;;
781;SDS011;374;52.568;13.402;2022-08-18T13:33:57;14.50;;;13.40;;
781;SDS011;374;52.568;13.402;2022-08-18T13:36:24;16.13;;;14.83;;
781;SDS011;374;52.568;13.402;2022-08-18T13:38:51;15.13;;;13.77;;
781;SDS011;374;52.568;13.402;2022-08-18T13:41:18;15.40;;;13.47;;
781;SDS011;374;52.568;13.402;2022-08-18T13:43:44;13.87;;;12.87;;
781;SDS011;374;52.568;13.402;2022-08-18T13:46:11;14.70;;;13.60;;
781;SDS011;374;52.568;13.402;2022-08-18T13:48:39;13.20;;;12.20;;
781;SDS011;374;52.568;13.402;2022-08-18T13:51:05;15.37;;;14.17;;
781;SDS011;374;52.568;13.402;2022-08-18T13:53:34;14.70;;;13.60;;
781;SDS011;374;52.568;13.402;2022-08-18T13:56:03;12.73;;;11.63;;
781;SDS011;374;52.568;13.402;2022-08-18T13:58:29;14.17;;;13.07;;
781;SDS011;374;52.568;13.402;2022-08-18T14:01:03;14.30;;;13.20;;
781;SDS011;374;52.568;13.402;2022-08-18T14:03:31;13.70;;;12.60;;
781;SDS011;374;52.568;13.402;2022-08-18T14:05:59;13.73;;;12.83;;
781;SDS011;374;52.568;13.402;2022-08-18T14:08:29;14.23;;;13.13;;
781;SDS011;374;52.568;13.402;2022-08-18T14:10:57;14.20;;;13.23;;
781;SDS011;374;52.568;13.402;2022-08-18T14:13:31;14.37;;;12.90;;
781;SDS011;374;52.568;13.402;2022-08-18T14:15:57;13.43;;;12.33;;
781;SDS011;374;52.568;13.402;2022-08-18T14:18:23;13.40;;;12.40;;
781;SDS011;374;52.568;13.402;2022-08-18T14:20:49;13.07;;;12.10;;
781;SDS011;374;52.568;13.402;2022-08-18T14:23:33;13.07;;;12.07;;
781;SDS011;374;52.568;13.402;2022-08-18T14:26:17;14.40;;;13.20;;
781;SDS011;374;52.568;13.402;2022-08-18T14:29:07;12.93;;;11.93;;
781;SDS011;374;52.568;13.402;2022-08-18T14:31:36;12.90;;;11.90;;
781;SDS011;374;52.568;13.402;2022-08-18T14:34:02;16.27;;;13.43;;
781;SDS011;374;52.568;13.402;2022-08-18T14:36:28;13.33;;;12.43;;
781;SDS011;374;52.568;13.402;2022-08-18T14:38:53;14.17;;;13.07;;
781;SDS011;374;52.568;13.402;2022-08-18T14:41:19;13.53;;;12.43;;
781;SDS011;374;52.568;13.402;2022-08-18T14:43:44;15.93;;;14.20;;
781;SDS011;374;52.568;13.402;2022-08-18T14:46:11;12.83;;;11.70;;
781;SDS011;374;52.568;13.402;2022-08-18T14:48:38;12.93;;;11.73;;
781;SDS011;374;52.568;13.402;2022-08-18T14:51:04;12.13;;;11.13;;
781;SDS011;374;52.568;13.402;2022-08-18T14:53:31;13.37;;;11.80;;
781;SDS011;374;52.568;13.402;2022-08-18T14:55:58;13.33;;;12.10;;
781;SDS011;374;52.568;13.402;2022-08-18T14:58:25;13.07;;;11.77;;
781;SDS011;374;52.568;13.402;2022-08-18T15:00:59;12.27;;;11.37;;
781;SDS011;374;52.568;13.402;2022-08-18T15:03:27;12.03;;;10.93;;
781;SDS011;374;52.568;13.402;2022-08-18T15:05:54;13.53;;;12.50;;
781;SDS011;374;52.568;13.402;2022-08-18T15:08:21;13.73;;;12.37;;
781;SDS011;374;52.568;13.402;2022-08-18T15:10:47;13.50;;;12.30;;
781;SDS011;374;52.568;13.402;2022-08-18T15:13:13;13.03;;;11.73;;
781;SDS011;374;52.568;13.402;2022-08-18T15:15:39;13.87;;;12.17;;
781;SDS011;374;52.568;13.402;2022-08-18T15:18:05;15.27;;;13.67;;
781;SDS011;374;52.568;13.402;2022-08-18T15:20:31;12.60;;;11.60;;
781;SDS011;374;52.568;13.402;2022-08-18T15:23:00;14.90;;;13.30;;
781;SDS011;374;52.568;13.402;2022-08-18T15:25:46;13.40;;;12.10;;
781;SDS011;374;52.568;13.402;2022-08-18T15:28:22;15.10;;;13.57;;
781;SDS011;374;52.568;13.402;2022-08-18T15:30:50;11.87;;;10.87;;
781;SDS011;374;52.568;13.402;2022-08-18T15:33:17;12.60;;;11.60;;
781;SDS011;374;52.568;13.402;2022-08-18T15:35:44;13.20;;;11.80;;
781;SDS011;374;52.568;13.402;2022-08-18T15:38:12;13.10;;;12.00;;
781;SDS011;374;52.568;13.402;2022-08-18T15:40:52;12.17;;;11.07;;
781;SDS011;374;52.568;13.402;2022-08-18T15:43:23;11.87;;;10.87;;
781;SDS011;374;52.568;13.402;2022-08-18T15:45:50;11.97;;;11.07;;
781;SDS011;374;52.568;13.402;2022-08-18T15:48:19;12.03;;;11.07;;
781;SDS011;374;52.568;13.402;2022-08-18T15:50:46;11.63;;;10.73;;
781;SDS011;374;52.568;13.402;2022-08-18T15:53:14;14.70;;;13.50;;
781;SDS011;374;52.568;13.402;2022-08-18T15:55:41;21.90;;;19.60;;
781;SDS011;374;52.568;13.402;2022-08-18T15:58:08;16.03;;;14.53;;
781;SDS011;374;52.568;13.402;2022-08-18T16:00:35;12.83;;;11.70;;
781;SDS011;374;52.568;13.402;2022-08-18T16:03:04;16.70;;;13.23;;
781;SDS011;374;52.568;13.402;2022-08-18T16:05:35;12.63;;;11.70;;
781;SDS011;374;52.568;13.402;2022-08-18T16:08:05;14.67;;;13.47;;
781;SDS011;374;52.568;13.402;2022-08-18T16:10:33;13.77;;;12.57;;
781;SDS011;374;52.568;13.402;2022-08-18T16:13:00;10.70;;;9.80;;
781;SDS011;374;52.568;13.402;2022-08-18T16:15:28;12.20;;;11.10;;
781;SDS011;374;52.568;13.402;2022-08-18T16:17:57;12.47;;;11.47;;
781;SDS011;374;52.568;13.402;2022-08-18T16:20:23;11.40;;;10.40;;
781;SDS011;374;52.568;13.402;2022-08-18T16:22:49;12.50;;;11.40;;
781;SDS011;374;52.568;13.402;2022-08-18T16:25:16;12.50;;;11.37;;
781;SDS011;374;52.568;13.402;2022-08-18T16:27:42;13.10;;;11.70;;
781;SDS011;374;52.568;13.402;2022-08-18T16:30:09;13.03;;;11.90;;
781;SDS011;374;52.568;13.402;2022-08-18T16:32:36;12.20;;;11.20;;
781;SDS011;374;52.568;13.402;2022-08-18T16:35:02;13.30;;;12.00;;
781;SDS011;374;52.568;13.402;2022-08-18T16:37:29;12.93;;;11.73;;
781;SDS011;374;52.568;13.402;2022-08-18T16:39:54;12.63;;;11.67;;
781;SDS011;374;52.568;13.402;2022-08-18T16:42:20;12.23;;;11.33;;
781;SDS011;374;52.568;13.402;2022-08-18T16:44:46;12.53;;;11.43;;
781;SDS011;374;52.568;13.402;2022-08-18T16:47:12;11.67;;;10.70;;
781;SDS011;374;52.568;13.402;2022-08-18T16:49:41;12.60;;;11.47;;
781;SDS011;374;52.568;13.402;2022-08-18T16:52:09;11.33;;;10.43;;
781;SDS011;374;52.568;13.402;2022-08-18T16:54:34;12.17;;;11.07;;
781;SDS011;374;52.568;13.402;2022-08-18T16:57:00;12.63;;;11.43;;
781;SDS011;374;52.568;13.402;2022-08-18T16:59:26;12.40;;;11.40;;
781;SDS011;374;52.568;13.402;2022-08-18T17:02:10;19.40;;;12.70;;
781;SDS011;374;52.568;13.402;2022-08-18T17:04:54;16.97;;;14.60;;
781;SDS011;374;52.568;13.402;2022-08-18T17:07:26;16.17;;;14.20;;
781;SDS011;374;52.568;13.402;2022-08-18T17:09:51;15.77;;;14.13;;
781;SDS011;374;52.568;13.402;2022-08-18T17:12:17;14.23;;;12.93;;
781;SDS011;374;52.568;13.402;2022-08-18T17:14:42;15.90;;;14.30;;
781;SDS011;374;52.568;13.402;2022-08-18T17:17:08;15.27;;;13.90;;
781;SDS011;374;52.568;13.402;2022-08-18T17:19:34;14.30;;;13.00;;
781;SDS011;374;52.568;13.402;2022-08-18T17:22:01;13.27;;;12.17;;
781;SDS011;374;52.568;13.402;2022-08-18T17:24:27;15.37;;;13.50;;
781;SDS011;374;52.568;13.402;2022-08-18T17:26:58;15.33;;;13.73;;
781;SDS011;374;52.568;13.402;2022-08-18T17:29:41;14.17;;;12.70;;
781;SDS011;374;52.568;13.402;2022-08-18T17:32:28;15.47;;;14.23;;
781;SDS011;374;52.568;13.402;2022-08-18T17:35:22;14.63;;;13.23;;